createdAt,value
2018-07-27T00:02:26.414Z,21.30
2018-07-27T00:04:54.617Z,21.30
2018-07-27T00:07:22.845Z,21.30
2018-07-27T00:09:51.041Z,21.30
2018-07-27T00:12:19.451Z,21.30
2018-07-27T00:17:15.581Z,21.10
2018-07-27T00:22:12.109Z,21.10
2018-07-27T00:24:40.329Z,21.10
2018-07-27T00:27:08.557Z,21.20
2018-07-27T00:29:36.759Z,21.20
2018-07-27T00:32:04.952Z,21.20
2018-07-27T00:34:33.250Z,21.30
2018-07-27T00:37:01.523Z,21.40
2018-07-27T00:39:29.761Z,21.40
2018-07-27T00:44:26.195Z,21.40
2018-07-27T00:46:54.529Z,21.40
2018-07-27T00:49:22.706Z,21.40
2018-07-27T00:51:51.169Z,21.40
2018-07-27T00:54:19.370Z,21.40
2018-07-27T00:56:47.599Z,21.50
2018-07-27T00:59:15.816Z,21.40
2018-07-27T01:01:44.066Z,21.30
2018-07-27T01:04:12.366Z,21.20
2018-07-27T01:06:40.769Z,21.10
2018-07-27T01:09:10.016Z,21.10
2018-07-27T01:11:38.293Z,21.10
2018-07-27T01:14:06.921Z,21.10
2018-07-27T01:16:35.325Z,21.10
2018-07-27T01:19:03.733Z,21.20
2018-07-27T01:21:31.983Z,21.20
2018-07-27T01:24:00.224Z,21.30
2018-07-27T01:26:28.546Z,21.30
2018-07-27T01:28:56.869Z,21.40
2018-07-27T01:31:25.106Z,21.40
2018-07-27T01:33:53.369Z,21.40
2018-07-27T01:36:21.697Z,21.40
2018-07-27T01:38:50.095Z,21.40
2018-07-27T01:41:18.309Z,21.40
2018-07-27T01:46:14.469Z,21.40
2018-07-27T01:48:42.689Z,21.30
2018-07-27T01:51:10.922Z,21.30
2018-07-27T01:53:39.145Z,21.30
2018-07-27T01:56:07.382Z,21.30
2018-07-27T01:58:35.589Z,21.20
2018-07-27T02:01:03.809Z,21.20
2018-07-27T02:06:00.263Z,21.20
2018-07-27T02:08:28.418Z,21.30
2018-07-27T02:10:56.650Z,21.30
2018-07-27T02:13:25.141Z,21.30
2018-07-27T02:15:53.329Z,21.30
2018-07-27T02:18:21.558Z,21.30
2018-07-27T02:20:49.776Z,21.30
2018-07-27T02:23:18.003Z,21.30
2018-07-27T02:25:46.397Z,21.30
2018-07-27T02:28:14.587Z,21.30
2018-07-27T02:30:42.794Z,21.30
2018-07-27T02:33:11.003Z,21.30
2018-07-27T02:35:39.205Z,21.20
2018-07-27T02:38:07.716Z,21.20
2018-07-27T02:40:35.902Z,21.20
2018-07-27T02:43:04.155Z,21.20
2018-07-27T02:45:32.418Z,21.10
2018-07-27T02:48:00.617Z,21.10
2018-07-27T02:50:28.852Z,21.10
2018-07-27T02:52:57.077Z,21.00
2018-07-27T02:55:25.286Z,21.00
2018-07-27T02:57:53.498Z,21.00
2018-07-27T03:00:21.721Z,21.00
2018-07-27T03:02:49.945Z,21.00
2018-07-27T03:05:18.146Z,21.00
2018-07-27T03:07:46.358Z,21.00
2018-07-27T03:10:14.569Z,20.90
2018-07-27T03:12:42.797Z,20.90
2018-07-27T03:15:11.025Z,20.80
2018-07-27T03:17:39.245Z,20.80
2018-07-27T03:20:07.660Z,20.80
2018-07-27T03:22:35.886Z,20.70
2018-07-27T03:25:04.564Z,20.70
2018-07-27T03:27:32.792Z,20.70
2018-07-27T03:30:00.984Z,20.70
2018-07-27T03:32:29.209Z,20.70
2018-07-27T03:34:57.422Z,20.70
2018-07-27T03:37:25.717Z,20.80
2018-07-27T03:39:53.964Z,20.70
2018-07-27T03:42:22.473Z,20.60
2018-07-27T03:44:50.743Z,20.60
2018-07-27T03:47:18.942Z,20.60
2018-07-27T03:49:47.197Z,20.60
2018-07-27T03:52:15.447Z,20.60
2018-07-27T03:54:43.843Z,20.60
2018-07-27T03:57:12.070Z,20.50
2018-07-27T04:02:08.456Z,20.40
2018-07-27T04:04:36.667Z,20.40
2018-07-27T04:07:05.095Z,20.30
2018-07-27T04:09:33.372Z,20.30
2018-07-27T04:12:01.618Z,20.20
2018-07-27T04:14:29.862Z,20.10
2018-07-27T04:16:58.060Z,20.00
2018-07-27T04:19:26.273Z,20.10
2018-07-27T04:21:54.557Z,20.10
2018-07-27T04:24:22.812Z,20.10
2018-07-27T04:26:51.189Z,20.10
2018-07-27T04:29:19.454Z,20.10
2018-07-27T04:34:15.636Z,20.30
2018-07-27T04:36:43.846Z,20.40
2018-07-27T04:39:12.520Z,20.50
2018-07-27T04:41:40.833Z,20.50
2018-07-27T04:44:09.152Z,20.60
2018-07-27T04:46:37.423Z,20.60
2018-07-27T04:49:06.027Z,20.60
2018-07-27T04:51:34.253Z,20.60
2018-07-27T04:56:30.741Z,20.60
2018-07-27T05:01:26.930Z,20.70
2018-07-27T05:03:55.278Z,20.70
2018-07-27T05:06:23.517Z,20.80
2018-07-27T05:08:57.017Z,20.80
2018-07-27T05:11:25.360Z,20.80
2018-07-27T05:13:53.562Z,20.90
2018-07-27T05:16:21.760Z,20.90
2018-07-27T05:18:49.978Z,21.00
2018-07-27T05:21:18.224Z,21.10
2018-07-27T05:23:46.421Z,21.30
2018-07-27T05:26:14.674Z,21.30
2018-07-27T05:28:42.857Z,21.40
2018-07-27T05:31:11.072Z,21.40
2018-07-27T05:36:07.338Z,21.60
2018-07-27T05:38:35.568Z,21.60
2018-07-27T05:41:03.778Z,21.80
2018-07-27T05:43:31.985Z,21.90
2018-07-27T05:46:00.266Z,21.90
2018-07-27T05:48:28.477Z,21.90
2018-07-27T05:50:56.686Z,22.00
2018-07-27T05:53:24.925Z,22.00
2018-07-27T05:55:53.398Z,22.10
2018-07-27T05:58:21.622Z,22.20
2018-07-27T06:00:49.841Z,22.20
2018-07-27T06:03:18.057Z,22.20
2018-07-27T06:05:46.274Z,22.00
2018-07-27T06:08:15.462Z,22.00
2018-07-27T06:10:43.718Z,22.10
2018-07-27T06:13:11.962Z,22.30
2018-07-27T06:15:40.169Z,22.30
2018-07-27T06:18:09.055Z,22.40
2018-07-27T06:20:37.151Z,22.40
2018-07-27T06:23:05.377Z,22.50
2018-07-27T06:25:33.625Z,22.50
2018-07-27T06:28:01.829Z,22.50
2018-07-27T06:30:30.070Z,22.60
2018-07-27T06:32:58.276Z,22.60
2018-07-27T06:35:26.485Z,22.70
2018-07-27T06:37:54.689Z,22.80
2018-07-27T06:40:23.026Z,22.90
2018-07-27T06:42:51.273Z,23.00
2018-07-27T06:45:19.569Z,23.00
2018-07-27T06:47:47.976Z,23.10
2018-07-27T06:50:16.182Z,23.20
2018-07-27T06:52:44.430Z,23.30
2018-07-27T06:55:12.685Z,23.30
2018-07-27T06:57:40.897Z,23.40
2018-07-27T07:00:09.137Z,23.40
2018-07-27T07:02:37.469Z,23.50
2018-07-27T07:05:06.318Z,23.50
2018-07-27T07:07:34.529Z,23.60
2018-07-27T07:10:02.756Z,23.70
2018-07-27T07:12:30.985Z,23.90
2018-07-27T07:14:59.189Z,23.90
2018-07-27T07:17:27.409Z,23.90
2018-07-27T07:19:55.606Z,23.90
2018-07-27T07:22:23.823Z,24.10
2018-07-27T07:27:20.223Z,24.50
2018-07-27T07:29:48.426Z,24.60
2018-07-27T07:32:16.834Z,24.80
2018-07-27T07:34:45.037Z,24.90
2018-07-27T07:37:13.245Z,24.90
2018-07-27T07:39:41.445Z,25.00
2018-07-27T07:42:09.661Z,25.00
2018-07-27T07:44:37.886Z,25.00
2018-07-27T07:47:06.146Z,25.00
2018-07-27T07:49:34.353Z,25.20
2018-07-27T07:52:02.597Z,25.20
2018-07-27T07:54:30.803Z,25.10
2018-07-27T07:56:59.003Z,25.20
2018-07-27T07:59:27.197Z,25.20
2018-07-27T08:01:55.423Z,25.30
2018-07-27T08:06:51.822Z,25.40
2018-07-27T08:09:20.318Z,25.40
2018-07-27T08:11:49.286Z,25.30
2018-07-27T08:14:17.673Z,25.30
2018-07-27T08:16:45.886Z,25.50
2018-07-27T08:19:14.285Z,25.40
2018-07-27T08:21:42.521Z,25.50
2018-07-27T08:24:10.709Z,25.60
2018-07-27T08:27:01.085Z,25.70
2018-07-27T08:29:32.821Z,25.80
2018-07-27T08:32:01.367Z,25.80
2018-07-27T08:34:29.807Z,25.90
2018-07-27T08:36:58.027Z,26.00
2018-07-27T08:39:27.416Z,26.10
2018-07-27T08:41:55.673Z,26.20
2018-07-27T08:44:27.062Z,26.40
2018-07-27T08:49:23.230Z,26.60
2018-07-27T08:51:51.457Z,26.70
2018-07-27T08:54:19.701Z,26.90
2018-07-27T08:56:47.956Z,26.90
2018-07-27T08:59:16.174Z,26.90
2018-07-27T09:01:44.525Z,26.90
2018-07-27T09:04:12.843Z,26.90
2018-07-27T09:06:41.131Z,26.80
2018-07-27T09:09:11.865Z,27.00
2018-07-27T09:11:40.212Z,27.10
2018-07-27T09:14:08.398Z,27.10
2018-07-27T09:16:36.630Z,27.20
2018-07-27T09:19:05.004Z,27.40
2018-07-27T09:21:33.205Z,27.50
2018-07-27T09:24:01.517Z,27.50
2018-07-27T09:26:29.734Z,27.50
2018-07-27T09:28:57.955Z,27.60
2018-07-27T09:31:26.429Z,27.60
2018-07-27T09:33:54.727Z,27.70
2018-07-27T09:36:22.942Z,27.70
2018-07-27T09:38:51.156Z,27.80
2018-07-27T09:41:19.366Z,27.90
2018-07-27T09:43:47.581Z,28.00
2018-07-27T09:46:15.765Z,28.00
2018-07-27T09:48:48.242Z,28.10
2018-07-27T09:51:16.457Z,28.10
2018-07-27T09:53:44.677Z,28.10
2018-07-27T09:56:13.314Z,28.00
2018-07-27T09:58:41.509Z,28.00
2018-07-27T10:01:13.977Z,28.10
2018-07-27T10:03:42.175Z,28.20
2018-07-27T10:06:10.448Z,28.40
2018-07-27T10:08:39.186Z,28.50
2018-07-27T10:11:07.372Z,28.50
2018-07-27T10:13:35.569Z,28.60
2018-07-27T10:16:03.821Z,28.60
2018-07-27T10:21:00.231Z,28.50
2018-07-27T10:23:28.413Z,28.50
2018-07-27T10:25:56.610Z,28.40
2018-07-27T10:28:24.817Z,28.50
2018-07-27T10:30:53.026Z,28.60
2018-07-27T10:33:21.229Z,28.70
2018-07-27T10:35:49.433Z,28.70
2018-07-27T10:38:18.088Z,28.70
2018-07-27T10:40:46.413Z,28.90
2018-07-27T10:43:14.625Z,29.00
2018-07-27T10:45:42.866Z,28.90
2018-07-27T10:48:11.245Z,29.00
2018-07-27T10:50:39.438Z,29.20
2018-07-27T10:53:07.652Z,29.40
2018-07-27T10:55:35.873Z,29.70
2018-07-27T10:58:04.173Z,29.80
2018-07-27T11:00:32.524Z,30.00
2018-07-27T11:03:00.985Z,30.10
2018-07-27T11:05:29.309Z,30.30
2018-07-27T11:07:57.560Z,30.70
2018-07-27T11:10:25.799Z,31.10
2018-07-27T11:12:54.045Z,31.50
2018-07-27T11:15:22.393Z,32.10
2018-07-27T11:17:50.653Z,32.90
2018-07-27T11:20:18.933Z,33.60
2018-07-27T11:22:47.505Z,34.30
2018-07-27T11:25:15.909Z,35.00
2018-07-27T11:27:44.166Z,35.50
2018-07-27T11:30:12.443Z,36.00
2018-07-27T11:32:40.733Z,36.70
2018-07-27T11:35:08.977Z,37.90
2018-07-27T11:37:37.310Z,39.00
2018-07-27T11:40:06.372Z,40.30
2018-07-27T11:42:34.651Z,41.30
2018-07-27T11:45:03.034Z,41.90
2018-07-27T11:47:31.466Z,42.40
2018-07-27T11:49:59.711Z,42.70
2018-07-27T11:52:28.065Z,42.80
2018-07-27T11:54:56.549Z,42.40
2018-07-27T11:57:24.761Z,42.60
2018-07-27T11:59:53.032Z,43.10
2018-07-27T12:02:21.403Z,43.70
2018-07-27T12:04:49.977Z,44.90
2018-07-27T12:07:18.334Z,46.30
2018-07-27T12:09:46.608Z,47.30
2018-07-27T12:12:14.902Z,47.90
2018-07-27T12:14:43.304Z,48.70
2018-07-27T12:17:11.540Z,49.40
2018-07-27T12:19:39.762Z,49.50
2018-07-27T12:22:08.021Z,48.30
2018-07-27T12:24:37.518Z,47.00
2018-07-27T12:27:05.900Z,46.80
2018-07-27T12:29:34.190Z,47.20
2018-07-27T12:32:03.595Z,47.80
2018-07-27T12:34:31.817Z,48.50
2018-07-27T12:37:00.111Z,49.10
2018-07-27T12:39:28.387Z,50.10
2018-07-27T12:41:56.669Z,50.80
2018-07-27T12:44:24.942Z,51.40
2018-07-27T12:46:53.171Z,51.00
2018-07-27T12:49:21.849Z,49.70
2018-07-27T12:51:50.120Z,48.00
2018-07-27T12:56:46.595Z,45.50
2018-07-27T13:01:42.798Z,47.70
2018-07-27T13:04:11.129Z,48.90
2018-07-27T13:09:08.693Z,50.30
2018-07-27T13:11:37.073Z,50.70
2018-07-27T13:14:05.590Z,51.50
2018-07-27T13:16:33.874Z,52.40
2018-07-27T13:19:02.135Z,52.90
2018-07-27T13:21:30.397Z,53.20
2018-07-27T13:24:01.795Z,53.50
2018-07-27T13:26:30.485Z,53.70
2018-07-27T13:28:58.823Z,53.70
2018-07-27T13:31:48.791Z,53.90
2018-07-27T13:37:17.985Z,54.30
2018-07-27T13:39:47.022Z,54.70
2018-07-27T13:42:16.509Z,54.80
2018-07-27T13:44:44.980Z,54.80
2018-07-27T13:47:13.490Z,54.80
2018-07-27T13:49:41.787Z,54.80
2018-07-27T13:52:10.066Z,53.70
2018-07-27T13:54:38.418Z,53.50
2018-07-27T13:57:06.654Z,53.70
2018-07-27T14:02:03.042Z,54.60
2018-07-27T14:04:31.317Z,55.10
2018-07-27T14:07:00.898Z,55.50
2018-07-27T14:09:29.333Z,55.70
2018-07-27T14:11:58.153Z,55.90
2018-07-27T14:16:54.450Z,56.60
2018-07-27T14:19:22.981Z,56.70
2018-07-27T14:24:19.555Z,57.30
2018-07-27T14:26:47.876Z,57.70
2018-07-27T14:29:16.145Z,57.90
2018-07-27T14:31:44.494Z,58.10
2018-07-27T14:34:12.762Z,58.00
2018-07-27T14:36:41.026Z,57.90
2018-07-27T14:39:12.132Z,57.90
2018-07-27T14:41:40.672Z,57.80
2018-07-27T14:44:08.986Z,57.80
2018-07-27T14:46:37.725Z,58.20
2018-07-27T14:49:10.393Z,58.40
2018-07-27T14:51:38.939Z,58.40
2018-07-27T14:54:08.117Z,57.90
2018-07-27T14:56:36.399Z,58.00
2018-07-27T14:59:04.679Z,58.40
2018-07-27T15:01:32.968Z,59.00
2018-07-27T15:04:01.312Z,59.20
2018-07-27T15:06:29.552Z,59.00
2018-07-27T15:08:57.733Z,59.00
2018-07-27T15:16:22.314Z,59.80
2018-07-27T15:18:50.454Z,59.60
2018-07-27T15:21:18.949Z,59.50
2018-07-27T15:23:47.314Z,59.60
2018-07-27T15:26:15.525Z,59.90
2018-07-27T15:28:43.996Z,60.00
2018-07-27T15:31:12.190Z,59.80
2018-07-27T15:33:40.401Z,59.80
2018-07-27T15:36:08.652Z,59.20
2018-07-27T15:38:36.925Z,59.00
2018-07-27T15:43:33.165Z,58.50
2018-07-27T15:46:01.414Z,58.70
2018-07-27T15:48:29.761Z,58.70
2018-07-27T15:50:57.924Z,58.90
2018-07-27T15:53:26.145Z,59.00
2018-07-27T15:55:54.393Z,59.20
2018-07-27T15:58:22.627Z,59.00
2018-07-27T16:00:50.885Z,58.90
2018-07-27T16:03:19.125Z,58.70
2018-07-27T16:05:47.653Z,59.00
2018-07-27T16:08:16.285Z,58.90
2018-07-27T16:10:44.557Z,58.50
2018-07-27T16:13:12.810Z,58.00
2018-07-27T16:15:41.058Z,57.60
2018-07-27T16:18:09.253Z,57.40
2018-07-27T16:20:37.529Z,57.50
2018-07-27T16:25:33.834Z,57.20
2018-07-27T16:28:02.085Z,57.30
2018-07-27T16:30:30.305Z,57.20
2018-07-27T16:32:58.725Z,56.70
2018-07-27T16:35:26.922Z,56.10
2018-07-27T16:37:55.186Z,55.60
2018-07-27T16:40:23.422Z,55.00
2018-07-27T16:42:51.782Z,54.70
2018-07-27T16:45:20.011Z,54.60
2018-07-27T16:47:48.233Z,54.60
2018-07-27T16:50:16.601Z,54.40
2018-07-27T16:52:45.013Z,54.20
2018-07-27T16:55:13.270Z,52.10
2018-07-27T16:57:41.706Z,50.20
2018-07-27T17:00:09.918Z,49.80
2018-07-27T17:02:38.149Z,48.40
2018-07-27T17:05:06.474Z,46.10
2018-07-27T17:07:34.705Z,43.90
2018-07-27T17:10:03.090Z,41.80
2018-07-27T17:12:31.453Z,40.30
2018-07-27T17:14:59.664Z,39.10
2018-07-27T17:17:27.990Z,37.80
2018-07-27T17:19:56.498Z,36.90
2018-07-27T17:22:24.828Z,36.20
2018-07-27T17:27:21.025Z,35.10
2018-07-27T17:29:49.218Z,34.60
2018-07-27T17:32:17.466Z,34.20
2018-07-27T17:34:45.951Z,33.90
2018-07-27T17:37:14.178Z,33.60
2018-07-27T17:42:10.380Z,33.20
2018-07-27T17:44:38.606Z,33.10
2018-07-27T17:47:07.181Z,33.00
2018-07-27T17:49:35.413Z,32.80
2018-07-27T17:52:03.966Z,32.70
2018-07-27T17:54:32.207Z,32.40
2018-07-27T17:57:00.461Z,32.30
2018-07-27T17:59:28.681Z,32.10
2018-07-27T18:01:56.904Z,31.90
2018-07-27T18:04:25.105Z,31.80
2018-07-27T18:06:53.338Z,31.70
2018-07-27T18:09:21.529Z,31.60
2018-07-27T18:11:49.798Z,31.50
2018-07-27T18:14:18.241Z,31.40
2018-07-27T18:16:46.757Z,31.30
2018-07-27T18:19:14.947Z,31.10
2018-07-27T18:21:43.172Z,31.00
2018-07-27T18:24:11.435Z,30.90
2018-07-27T18:26:39.672Z,30.70
2018-07-27T18:29:08.033Z,30.60
2018-07-27T18:31:36.274Z,30.40
2018-07-27T18:34:04.545Z,30.30
2018-07-27T18:36:32.761Z,30.10
2018-07-27T18:39:01.263Z,30.10
2018-07-27T18:41:29.499Z,30.00
2018-07-27T18:43:57.708Z,29.90
2018-07-27T18:46:25.923Z,29.80
2018-07-27T18:48:54.145Z,29.70
2018-07-27T18:51:22.349Z,29.60
2018-07-27T18:53:50.593Z,29.50
2018-07-27T18:56:18.909Z,29.40
2018-07-27T18:58:47.053Z,29.40
2018-07-27T19:01:18.825Z,29.30
2018-07-27T19:03:47.063Z,29.10
2018-07-27T19:06:15.330Z,29.00
2018-07-27T19:08:43.567Z,28.90
2018-07-27T19:11:12.701Z,28.70
2018-07-27T19:13:40.921Z,28.70
2018-07-27T19:16:10.028Z,28.60
2018-07-27T19:18:38.533Z,28.50
2018-07-27T19:21:06.759Z,28.50
2018-07-27T19:23:35.155Z,28.30
2018-07-27T19:26:03.363Z,28.20
2018-07-27T19:28:31.820Z,28.20
2018-07-27T19:31:00.040Z,28.10
2018-07-27T19:33:28.298Z,28.10
2018-07-27T19:35:56.521Z,28.00
2018-07-27T19:38:24.777Z,28.00
2018-07-27T19:40:53.002Z,27.90
2018-07-27T19:43:21.230Z,27.90
2018-07-27T19:45:49.665Z,27.80
2018-07-27T19:48:17.885Z,27.80
2018-07-27T19:50:46.166Z,27.70
2018-07-27T19:53:14.395Z,27.70
2018-07-27T19:55:42.801Z,27.60
2018-07-27T19:58:11.030Z,27.60
2018-07-27T20:00:39.253Z,27.50
2018-07-27T20:03:07.486Z,27.50
2018-07-27T20:05:35.730Z,27.50
2018-07-27T20:08:04.213Z,27.40
2018-07-27T20:10:32.486Z,27.30
2018-07-27T20:13:00.717Z,27.30
2018-07-27T20:15:28.962Z,27.20
2018-07-27T20:17:57.278Z,27.20
2018-07-27T20:20:25.506Z,27.20
2018-07-27T20:22:54.040Z,27.10
2018-07-27T20:25:22.233Z,27.10
2018-07-27T20:27:50.646Z,27.00
2018-07-27T20:30:18.882Z,27.00
2018-07-27T20:32:47.105Z,27.00
2018-07-27T20:35:15.493Z,26.90
2018-07-27T20:37:43.702Z,26.90
2018-07-27T20:40:11.975Z,26.80
2018-07-27T20:42:40.333Z,26.70
2018-07-27T20:45:08.559Z,26.70
2018-07-27T20:47:37.217Z,26.70
2018-07-27T20:50:06.110Z,26.60
2018-07-27T20:52:34.314Z,26.60
2018-07-27T20:59:37.970Z,26.50
2018-07-27T21:02:06.498Z,26.30
2018-07-27T21:04:34.782Z,26.20
2018-07-27T21:07:03.014Z,26.20
2018-07-27T21:09:36.695Z,26.10
2018-07-27T21:12:04.921Z,26.00
2018-07-27T21:14:33.126Z,25.90
2018-07-27T21:17:01.346Z,25.90
2018-07-27T21:19:29.550Z,25.80
2018-07-27T21:21:57.858Z,25.60
2018-07-27T21:24:26.175Z,25.60
2018-07-27T21:26:54.397Z,25.50
2018-07-27T21:29:22.649Z,25.40
2018-07-27T21:31:50.890Z,25.30
2018-07-27T21:34:19.913Z,25.20
2018-07-27T21:36:48.121Z,25.20
2018-07-27T21:39:16.357Z,25.10
2018-07-27T21:41:44.602Z,25.00
2018-07-27T21:46:40.819Z,24.90
2018-07-27T21:49:09.077Z,24.80
2018-07-27T21:51:37.356Z,24.80
2018-07-27T21:54:05.567Z,24.70
2018-07-27T21:59:01.823Z,24.70
2018-07-27T22:01:30.058Z,24.60
2018-07-27T22:03:58.274Z,24.50
2018-07-27T22:06:26.517Z,24.40
2018-07-27T22:08:54.741Z,24.40
2018-07-27T22:11:23.011Z,24.30
2018-07-27T22:13:51.392Z,24.30
2018-07-27T22:18:47.597Z,24.30
2018-07-27T22:21:15.983Z,24.30
2018-07-27T22:23:44.213Z,24.30
2018-07-27T22:26:12.397Z,24.30
2018-07-27T22:28:40.633Z,24.30
2018-07-27T22:31:08.910Z,24.30
2018-07-27T22:33:37.138Z,24.30
2018-07-27T22:36:05.396Z,24.20
2018-07-27T22:38:33.645Z,24.10
2018-07-27T22:41:01.908Z,24.10
2018-07-27T22:43:30.420Z,24.00
2018-07-27T22:45:58.682Z,24.00
2018-07-27T22:48:26.910Z,23.90
2018-07-27T22:50:55.219Z,23.90
2018-07-27T22:55:51.654Z,23.70
2018-07-27T23:00:47.873Z,23.70
2018-07-27T23:03:16.142Z,23.70
2018-07-27T23:05:44.651Z,23.70
2018-07-27T23:08:12.933Z,23.60
2018-07-27T23:10:41.175Z,23.60
2018-07-27T23:13:09.356Z,23.70
2018-07-27T23:15:37.577Z,23.60
2018-07-27T23:18:05.879Z,23.70
2018-07-27T23:20:34.255Z,23.60
2018-07-27T23:23:02.454Z,23.50
2018-07-27T23:25:30.705Z,23.40
2018-07-27T23:27:59.203Z,23.40
2018-07-27T23:30:27.391Z,23.30
2018-07-27T23:32:55.636Z,23.20
2018-07-27T23:35:23.857Z,23.20
2018-07-27T23:37:52.089Z,23.10
2018-07-27T23:40:20.317Z,23.20
2018-07-27T23:45:16.523Z,23.10
2018-07-27T23:47:44.758Z,23.10
2018-07-27T23:50:12.990Z,23.10
2018-07-27T23:52:41.213Z,23.20
2018-07-27T23:55:09.469Z,23.20
2018-07-27T23:57:37.701Z,23.10
